Time;durP1;ratioP1;P1;durP2;ratioP2;P2;SDS_P1;SDS_P2;PMS_P1;PMS_P2;Temp;Humidity;BMP_temperature;BMP_pressure;BME280_temperature;BME280_humidity;BME280_pressure;Samples;Min_cycle;Max_cycle;Signal;HPM_P1;HPM_P2
2023/08/26 00:00:44;;;;;;;23.80;12.70;;;;;;;-128.00;-1.00;-1.00;105434;1253;1004392;-81
2023/08/26 00:03:30;;;;;;;15.50;12.40;;;;;;;-128.00;-1.00;-1.00;105410;1253;1060926;-80
2023/08/26 00:05:57;;;;;;;20.00;12.50;;;;;;;-128.00;-1.00;-1.00;105472;1253;1004290;-80
2023/08/26 00:08:23;;;;;;;14.00;12.50;;;;;;;-128.00;-1.00;-1.00;105446;1253;1004189;-80
2023/08/26 00:10:51;;;;;;;15.40;11.80;;;;;;;-128.00;-1.00;-1.00;105391;1253;1004265;-80
2023/08/26 00:13:17;;;;;;;16.00;12.40;;;;;;;-128.00;-1.00;-1.00;105408;1253;1004527;-80
2023/08/26 00:15:43;;;;;;;22.00;12.50;;;;;;;-128.00;-1.00;-1.00;105409;1253;1003862;-80
2023/08/26 00:18:11;;;;;;;17.30;12.10;;;;;;;-128.00;-1.00;-1.00;105423;1254;1004316;-80
2023/08/26 00:20:38;;;;;;;17.80;12.50;;;;;;;-128.00;-1.00;-1.00;105344;1253;1004633;-80
2023/08/26 00:23:04;;;;;;;19.00;11.70;;;;;;;-128.00;-1.00;-1.00;105419;1253;1005308;-80
2023/08/26 00:25:31;;;;;;;18.80;12.00;;;;;;;-128.00;-1.00;-1.00;105408;1253;1003551;-80
2023/08/26 00:27:57;;;;;;;18.10;12.20;;;;;;;-128.00;-1.00;-1.00;105419;1253;1004254;-80
2023/08/26 00:30:24;;;;;;;14.80;11.90;;;;;;;-128.00;-1.00;-1.00;105423;1253;1004227;-80
2023/08/26 00:32:51;;;;;;;18.30;12.50;;;;;;;-128.00;-1.00;-1.00;105382;1253;1004242;-80
2023/08/26 00:35:17;;;;;;;15.70;10.90;;;;;;;-128.00;-1.00;-1.00;105423;1253;1004280;-80
2023/08/26 00:37:44;;;;;;;17.00;11.70;;;;;;;-128.00;-1.00;-1.00;105418;1253;1004871;-80
2023/08/26 00:40:11;;;;;;;18.50;11.40;;;;;;;-128.00;-1.00;-1.00;105423;1253;1004378;-80
2023/08/26 00:42:37;;;;;;;17.10;11.60;;;;;;;-128.00;-1.00;-1.00;105407;1253;1004604;-80
2023/08/26 00:45:05;;;;;;;16.40;10.80;;;;;;;-128.00;-1.00;-1.00;105417;1253;1003651;-80
2023/08/26 00:47:31;;;;;;;17.70;13.40;;;;;;;-128.00;-1.00;-1.00;105214;1253;1005686;-80
2023/08/26 00:49:58;;;;;;;17.70;12.10;;;;;;;-128.00;-1.00;-1.00;105404;1253;1003203;-80
2023/08/26 00:52:24;;;;;;;16.10;12.10;;;;;;;-128.00;-1.00;-1.00;105434;1253;1004770;-80
2023/08/26 00:54:51;;;;;;;17.40;12.30;;;;;;;-128.00;-1.00;-1.00;105270;1253;1004717;-81
2023/08/26 00:57:18;;;;;;;14.90;11.20;;;;;;;-128.00;-1.00;-1.00;105214;1253;1004374;-80
2023/08/26 00:59:45;;;;;;;17.10;12.70;;;;;;;-128.00;-1.00;-1.00;105282;1253;1003690;-80
2023/08/26 01:02:11;;;;;;;19.80;11.70;;;;;;;-128.00;-1.00;-1.00;105282;1253;1004242;-80
2023/08/26 01:04:38;;;;;;;16.40;11.40;;;;;;;-128.00;-1.00;-1.00;105423;1253;1003967;-81
2023/08/26 01:07:05;;;;;;;16.80;12.10;;;;;;;-128.00;-1.00;-1.00;105448;1253;1004627;-80
2023/08/26 01:09:31;;;;;;;16.30;12.10;;;;;;;-128.00;-1.00;-1.00;105279;1253;1004478;-80
2023/08/26 01:12:15;;;;;;;17.70;11.60;;;;;;;-128.00;-1.00;-1.00;105411;1253;1004203;-80
2023/08/26 01:14:47;;;;;;;18.20;11.20;;;;;;;-128.00;-1.00;-1.00;105432;1254;1047653;-81
2023/08/26 01:17:14;;;;;;;18.20;11.30;;;;;;;-128.00;-1.00;-1.00;105613;1253;1060974;-80
2023/08/26 01:19:40;;;;;;;13.20;11.20;;;;;;;-128.00;-1.00;-1.00;105462;1253;1004280;-80
2023/08/26 01:22:08;;;;;;;15.70;10.50;;;;;;;-128.00;-1.00;-1.00;105436;1253;1003217;-80
2023/08/26 01:24:35;;;;;;;19.70;11.50;;;;;;;-128.00;-1.00;-1.00;105415;1253;1004094;-81
2023/08/26 01:27:02;;;;;;;12.30;9.60;;;;;;;-128.00;-1.00;-1.00;105443;1253;1004286;-80
2023/08/26 01:29:29;;;;;;;15.30;10.90;;;;;;;-128.00;-1.00;-1.00;105445;1253;1005020;-80
2023/08/26 01:32:14;;;;;;;15.60;11.20;;;;;;;-128.00;-1.00;-1.00;105440;1253;1003979;-80
2023/08/26 01:34:41;;;;;;;21.50;10.90;;;;;;;-128.00;-1.00;-1.00;105446;1253;1058272;-80
2023/08/26 01:37:08;;;;;;;12.60;9.80;;;;;;;-128.00;-1.00;-1.00;105428;1253;1004250;-80
2023/08/26 01:39:34;;;;;;;17.00;11.50;;;;;;;-128.00;-1.00;-1.00;105265;1253;1004491;-80
2023/08/26 01:42:02;;;;;;;14.60;11.30;;;;;;;-128.00;-1.00;-1.00;105206;1253;1004346;-79
2023/08/26 01:44:28;;;;;;;14.00;10.10;;;;;;;-128.00;-1.00;-1.00;105225;1253;1004813;-80
2023/08/26 01:46:55;;;;;;;17.20;11.20;;;;;;;-128.00;-1.00;-1.00;105257;1253;1004817;-80
2023/08/26 01:49:22;;;;;;;14.70;11.20;;;;;;;-128.00;-1.00;-1.00;105433;1253;1004119;-80
2023/08/26 01:51:49;;;;;;;12.60;11.20;;;;;;;-128.00;-1.00;-1.00;105443;1253;1005439;-80
2023/08/26 01:54:15;;;;;;;13.50;12.00;;;;;;;-128.00;-1.00;-1.00;105416;1253;1004925;-80
2023/08/26 01:56:42;;;;;;;18.70;11.30;;;;;;;-128.00;-1.00;-1.00;105404;1253;1004493;-80
2023/08/26 01:59:08;;;;;;;17.20;10.30;;;;;;;-128.00;-1.00;-1.00;105434;1253;1004821;-80
2023/08/26 02:01:35;;;;;;;20.60;11.70;;;;;;;-128.00;-1.00;-1.00;105422;1253;1004275;-80
2023/08/26 02:04:01;;;;;;;13.70;10.00;;;;;;;-128.00;-1.00;-1.00;105432;1253;1004390;-80
2023/08/26 02:06:28;;;;;;;15.20;10.40;;;;;;;-128.00;-1.00;-1.00;105399;1253;1005082;-80
2023/08/26 02:08:54;;;;;;;12.20;9.80;;;;;;;-128.00;-1.00;-1.00;105258;1253;1004176;-81
2023/08/26 02:11:24;;;;;;;11.80;9.90;;;;;;;-128.00;-1.00;-1.00;105462;1253;1003956;-80
2023/08/26 02:13:51;;;;;;;15.70;12.10;;;;;;;-128.00;-1.00;-1.00;105440;1253;1046347;-80
2023/08/26 02:16:17;;;;;;;24.40;11.80;;;;;;;-128.00;-1.00;-1.00;105456;1253;1003800;-80
2023/08/26 02:18:44;;;;;;;15.90;12.70;;;;;;;-128.00;-1.00;-1.00;105390;1257;1004485;-80
2023/08/26 02:21:11;;;;;;;14.40;11.40;;;;;;;-128.00;-1.00;-1.00;105416;1253;1004687;-80
2023/08/26 02:23:37;;;;;;;14.20;10.70;;;;;;;-128.00;-1.00;-1.00;105376;1253;1004532;-80
2023/08/26 02:26:04;;;;;;;12.40;10.50;;;;;;;-128.00;-1.00;-1.00;105428;1253;1004040;-80
2023/08/26 02:28:30;;;;;;;14.80;10.20;;;;;;;-128.00;-1.00;-1.00;105442;1253;1005052;-80
2023/08/26 02:30:57;;;;;;;12.30;9.50;;;;;;;-128.00;-1.00;-1.00;105428;1253;1004156;-80
2023/08/26 02:33:24;;;;;;;15.40;11.00;;;;;;;-128.00;-1.00;-1.00;105454;1253;1003303;-80
2023/08/26 02:35:50;;;;;;;12.30;10.40;;;;;;;-128.00;-1.00;-1.00;105426;1253;1004942;-80
2023/08/26 02:38:17;;;;;;;14.10;11.70;;;;;;;-128.00;-1.00;-1.00;105423;1253;1004930;-80
2023/08/26 02:40:56;;;;;;;16.50;10.90;;;;;;;-128.00;-1.00;-1.00;105460;1253;1003644;-80
2023/08/26 02:43:23;;;;;;;;;;;;;;;-128.00;-1.00;-1.00;105268;1253;1062255;-80
2023/08/26 02:45:53;;;;;;;15.70;10.40;;;;;;;-128.00;-1.00;-1.00;105452;1253;1004412;-79
2023/08/26 02:48:20;;;;;;;14.70;10.00;;;;;;;-128.00;-1.00;-1.00;105172;1253;1059575;-80
2023/08/26 02:50:46;;;;;;;13.10;10.10;;;;;;;-128.00;-1.00;-1.00;105431;1253;1004098;-80
2023/08/26 02:53:13;;;;;;;13.30;10.20;;;;;;;-128.00;-1.00;-1.00;105432;1253;1004098;-80
2023/08/26 02:55:40;;;;;;;11.90;10.40;;;;;;;-128.00;-1.00;-1.00;105428;1253;1004404;-80
2023/08/26 02:58:06;;;;;;;14.30;10.60;;;;;;;-128.00;-1.00;-1.00;105452;1253;1004810;-80
2023/08/26 03:00:35;;;;;;;14.10;10.00;;;;;;;-128.00;-1.00;-1.00;105438;1253;1004707;-80
2023/08/26 03:03:02;;;;;;;17.80;10.70;;;;;;;-128.00;-1.00;-1.00;105412;1253;1046229;-81
2023/08/26 03:05:28;;;;;;;17.30;11.60;;;;;;;-128.00;-1.00;-1.00;105448;1253;1004443;-80
2023/08/26 03:07:55;;;;;;;13.90;9.80;;;;;;;-128.00;-1.00;-1.00;105454;1253;1005170;-81
2023/08/26 03:10:21;;;;;;;16.60;11.80;;;;;;;-128.00;-1.00;-1.00;105472;1253;1004034;-80
2023/08/26 03:12:48;;;;;;;14.60;11.00;;;;;;;-128.00;-1.00;-1.00;105478;1253;1004745;-80
2023/08/26 03:15:15;;;;;;;13.60;10.30;;;;;;;-128.00;-1.00;-1.00;105406;1253;1003467;-80
2023/08/26 03:17:41;;;;;;;15.90;11.40;;;;;;;-128.00;-1.00;-1.00;105440;1253;1004019;-79
2023/08/26 03:20:09;;;;;;;15.70;10.10;;;;;;;-128.00;-1.00;-1.00;105384;1253;1003517;-80
2023/08/26 03:22:35;;;;;;;13.40;10.40;;;;;;;-128.00;-1.00;-1.00;105480;1253;1004054;-80
2023/08/26 03:25:02;;;;;;;11.20;8.70;;;;;;;-128.00;-1.00;-1.00;105251;1256;1005005;-80
2023/08/26 03:27:29;;;;;;;17.00;9.80;;;;;;;-128.00;-1.00;-1.00;105419;1253;1003367;-80
2023/08/26 03:29:55;;;;;;;14.00;9.80;;;;;;;-128.00;-1.00;-1.00;105463;1253;1005145;-79
2023/08/26 03:32:22;;;;;;;13.60;9.40;;;;;;;-128.00;-1.00;-1.00;105415;1253;1004454;-79
2023/08/26 03:34:48;;;;;;;12.70;10.20;;;;;;;-128.00;-1.00;-1.00;105465;1253;1004719;-80
2023/08/26 03:37:15;;;;;;;25.60;10.00;;;;;;;-128.00;-1.00;-1.00;105414;1253;1004337;-80
2023/08/26 03:39:42;;;;;;;15.70;9.40;;;;;;;-128.00;-1.00;-1.00;105253;1253;1004686;-80
2023/08/26 03:42:08;;;;;;;17.80;9.10;;;;;;;-128.00;-1.00;-1.00;105336;1253;1003671;-79
2023/08/26 03:44:35;;;;;;;15.00;9.50;;;;;;;-128.00;-1.00;-1.00;105714;1253;1003975;-80
2023/08/26 03:47:02;;;;;;;10.80;9.30;;;;;;;-128.00;-1.00;-1.00;105403;1253;1004782;-79
2023/08/26 03:49:30;;;;;;;13.60;10.20;;;;;;;-128.00;-1.00;-1.00;105457;1253;1003872;-80
2023/08/26 03:51:56;;;;;;;13.40;10.20;;;;;;;-128.00;-1.00;-1.00;105448;1253;1003847;-80
2023/08/26 03:54:23;;;;;;;18.30;9.80;;;;;;;-128.00;-1.00;-1.00;105415;1253;1003870;-80
2023/08/26 03:56:50;;;;;;;11.90;8.90;;;;;;;-128.00;-1.00;-1.00;105475;1253;1004026;-80
2023/08/26 03:59:16;;;;;;;14.50;9.00;;;;;;;-128.00;-1.00;-1.00;105427;1253;1004260;-80
2023/08/26 04:01:43;;;;;;;13.20;9.70;;;;;;;-128.00;-1.00;-1.00;105406;1253;1004120;-80
2023/08/26 04:04:09;;;;;;;9.50;8.30;;;;;;;-128.00;-1.00;-1.00;105452;1253;1004400;-80
2023/08/26 04:06:35;;;;;;;21.90;10.10;;;;;;;-128.00;-1.00;-1.00;105402;1253;1003936;-80
2023/08/26 04:09:03;;;;;;;15.20;9.40;;;;;;;-128.00;-1.00;-1.00;105440;1253;1004064;-80
2023/08/26 04:11:30;;;;;;;12.70;10.20;;;;;;;-128.00;-1.00;-1.00;105472;1258;1004216;-80
2023/08/26 04:13:56;;;;;;;12.90;10.00;;;;;;;-128.00;-1.00;-1.00;105438;1253;1004525;-80
2023/08/26 04:16:22;;;;;;;11.60;9.90;;;;;;;-128.00;-1.00;-1.00;105403;1253;1004509;-80
2023/08/26 04:18:49;;;;;;;15.00;10.30;;;;;;;-128.00;-1.00;-1.00;105439;1255;1004091;-81
2023/08/26 04:21:15;;;;;;;16.70;11.00;;;;;;;-128.00;-1.00;-1.00;105482;1253;1004813;-80
2023/08/26 04:23:42;;;;;;;15.60;10.10;;;;;;;-128.00;-1.00;-1.00;105443;1253;1004242;-80
2023/08/26 04:26:08;;;;;;;13.50;10.80;;;;;;;-128.00;-1.00;-1.00;105429;1253;1004865;-80
2023/08/26 04:28:35;;;;;;;14.30;10.00;;;;;;;-128.00;-1.00;-1.00;105245;1253;1005142;-80
2023/08/26 04:31:01;;;;;;;11.20;10.00;;;;;;;-128.00;-1.00;-1.00;105260;1253;1005164;-80
2023/08/26 04:33:29;;;;;;;16.70;11.00;;;;;;;-128.00;-1.00;-1.00;105410;1253;1003689;-80
2023/08/26 04:35:55;;;;;;;14.80;11.10;;;;;;;-128.00;-1.00;-1.00;105426;1257;1004561;-80
2023/08/26 04:38:22;;;;;;;18.20;11.10;;;;;;;-128.00;-1.00;-1.00;105421;1253;1004858;-80
2023/08/26 04:40:48;;;;;;;14.40;10.90;;;;;;;-128.00;-1.00;-1.00;105227;1253;1003471;-79
2023/08/26 04:43:15;;;;;;;13.80;10.60;;;;;;;-128.00;-1.00;-1.00;105236;1253;1004673;-80
2023/08/26 04:45:41;;;;;;;15.00;10.10;;;;;;;-128.00;-1.00;-1.00;105447;1257;1003692;-80
2023/08/26 04:48:09;;;;;;;14.80;10.20;;;;;;;-128.00;-1.00;-1.00;105444;1253;1004465;-80
2023/08/26 04:50:36;;;;;;;13.70;9.40;;;;;;;-128.00;-1.00;-1.00;105415;1253;1004222;-80
2023/08/26 04:53:03;;;;;;;16.00;9.80;;;;;;;-128.00;-1.00;-1.00;105431;1253;1003981;-79
2023/08/26 04:55:31;;;;;;;11.50;9.40;;;;;;;-128.00;-1.00;-1.00;105444;1253;1004419;-80
2023/08/26 04:57:57;;;;;;;16.20;9.40;;;;;;;-128.00;-1.00;-1.00;105442;1253;1004813;-80
2023/08/26 05:00:24;;;;;;;12.70;9.50;;;;;;;-128.00;-1.00;-1.00;105422;1253;1005018;-80
2023/08/26 05:02:50;;;;;;;15.60;9.80;;;;;;;-128.00;-1.00;-1.00;105401;1253;1004911;-80
2023/08/26 05:05:17;;;;;;;10.50;8.80;;;;;;;-128.00;-1.00;-1.00;105414;1253;1003872;-80
2023/08/26 05:07:43;;;;;;;12.40;9.60;;;;;;;-128.00;-1.00;-1.00;105412;1255;1004256;-80
2023/08/26 05:10:10;;;;;;;11.90;8.50;;;;;;;-128.00;-1.00;-1.00;105423;1253;1003830;-80
2023/08/26 05:12:36;;;;;;;10.30;8.90;;;;;;;-128.00;-1.00;-1.00;105426;1254;1004351;-80
2023/08/26 05:15:04;;;;;;;14.50;10.40;;;;;;;-128.00;-1.00;-1.00;105431;1253;1003574;-80
2023/08/26 05:17:30;;;;;;;10.90;9.70;;;;;;;-128.00;-1.00;-1.00;105416;1253;1003340;-80
2023/08/26 05:19:57;;;;;;;19.30;9.10;;;;;;;-128.00;-1.00;-1.00;105434;1254;1005242;-80
2023/08/26 05:22:23;;;;;;;15.60;10.20;;;;;;;-128.00;-1.00;-1.00;105461;1254;1004257;-80
2023/08/26 05:24:50;;;;;;;17.10;9.90;;;;;;;-128.00;-1.00;-1.00;105418;1254;1004901;-80
2023/08/26 05:27:16;;;;;;;11.60;9.30;;;;;;;-128.00;-1.00;-1.00;105247;1253;1004125;-80
2023/08/26 05:29:43;;;;;;;15.30;10.30;;;;;;;-128.00;-1.00;-1.00;105458;1253;1005064;-83
2023/08/26 05:32:09;;;;;;;12.70;8.80;;;;;;;-128.00;-1.00;-1.00;105462;1253;1005247;-81
2023/08/26 05:34:36;;;;;;;19.50;9.80;;;;;;;-128.00;-1.00;-1.00;105423;1253;1003901;-81
2023/08/26 05:37:02;;;;;;;11.40;8.10;;;;;;;-128.00;-1.00;-1.00;105391;1254;1004042;-80
2023/08/26 05:39:29;;;;;;;14.90;9.40;;;;;;;-128.00;-1.00;-1.00;105428;1253;1004556;-80
2023/08/26 05:41:55;;;;;;;19.10;11.00;;;;;;;-128.00;-1.00;-1.00;105413;1253;1004399;-80
2023/08/26 05:44:22;;;;;;;10.70;9.40;;;;;;;-128.00;-1.00;-1.00;105415;1253;1004352;-80
2023/08/26 05:46:48;;;;;;;12.60;8.50;;;;;;;-128.00;-1.00;-1.00;105456;1253;1003881;-80
2023/08/26 05:49:15;;;;;;;13.70;9.40;;;;;;;-128.00;-1.00;-1.00;105447;1253;1003801;-80
2023/08/26 05:51:41;;;;;;;14.40;10.00;;;;;;;-128.00;-1.00;-1.00;105542;1253;1004188;-80
2023/08/26 05:54:08;;;;;;;16.70;9.90;;;;;;;-128.00;-1.00;-1.00;105248;1253;1004622;-80
2023/08/26 05:56:35;;;;;;;12.90;9.60;;;;;;;-128.00;-1.00;-1.00;105468;1253;1004519;-80
2023/08/26 05:59:01;;;;;;;12.20;8.70;;;;;;;-128.00;-1.00;-1.00;105234;1254;1003340;-80
2023/08/26 06:01:28;;;;;;;14.60;8.90;;;;;;;-128.00;-1.00;-1.00;105209;1261;1004128;-80
2023/08/26 06:03:55;;;;;;;12.90;9.40;;;;;;;-128.00;-1.00;-1.00;105416;1253;1003964;-81
2023/08/26 06:06:21;;;;;;;10.50;8.40;;;;;;;-128.00;-1.00;-1.00;105224;1253;1004178;-80
2023/08/26 06:08:48;;;;;;;12.70;7.20;;;;;;;-128.00;-1.00;-1.00;105426;1253;1004294;-80
2023/08/26 06:11:14;;;;;;;12.10;7.90;;;;;;;-128.00;-1.00;-1.00;105466;1253;1004411;-80
2023/08/26 06:13:40;;;;;;;11.40;7.50;;;;;;;-128.00;-1.00;-1.00;105230;1253;1004034;-80
2023/08/26 06:16:07;;;;;;;12.80;7.40;;;;;;;-128.00;-1.00;-1.00;105266;1254;1004589;-81
2023/08/26 06:18:33;;;;;;;13.00;7.90;;;;;;;-128.00;-1.00;-1.00;105340;1255;1004602;-81
2023/08/26 06:21:00;;;;;;;16.30;7.30;;;;;;;-128.00;-1.00;-1.00;105455;1253;1004799;-81
2023/08/26 06:23:26;;;;;;;9.20;6.70;;;;;;;-128.00;-1.00;-1.00;105516;1253;1004497;-82
2023/08/26 06:25:53;;;;;;;11.50;6.90;;;;;;;-128.00;-1.00;-1.00;105452;1254;1004338;-81
2023/08/26 06:28:20;;;;;;;11.10;6.70;;;;;;;-128.00;-1.00;-1.00;105288;1260;1004210;-81
2023/08/26 06:30:47;;;;;;;10.30;5.60;;;;;;;-128.00;-1.00;-1.00;105632;1254;1004554;-80
2023/08/26 06:33:13;;;;;;;11.20;7.70;;;;;;;-128.00;-1.00;-1.00;105445;1259;1004719;-80
2023/08/26 06:35:40;;;;;;;12.60;8.10;;;;;;;-128.00;-1.00;-1.00;105660;1253;1004118;-80
2023/08/26 06:38:07;;;;;;;9.50;5.80;;;;;;;-128.00;-1.00;-1.00;105643;1257;1003543;-81
2023/08/26 06:40:34;;;;;;;8.40;6.60;;;;;;;-128.00;-1.00;-1.00;105495;1258;1004608;-80
2023/08/26 06:43:03;;;;;;;8.80;6.40;;;;;;;-128.00;-1.00;-1.00;105391;1257;1004265;-81
2023/08/26 06:45:30;;;;;;;10.60;6.10;;;;;;;-128.00;-1.00;-1.00;105396;1254;1047844;-80
2023/08/26 06:47:57;;;;;;;17.70;6.90;;;;;;;-128.00;-1.00;-1.00;105254;1254;1004352;-81
2023/08/26 06:50:24;;;;;;;12.20;7.20;;;;;;;-128.00;-1.00;-1.00;105428;1255;1004347;-80
2023/08/26 06:52:50;;;;;;;9.30;6.50;;;;;;;-128.00;-1.00;-1.00;105398;1254;1004208;-81
2023/08/26 06:55:18;;;;;;;19.40;8.50;;;;;;;-128.00;-1.00;-1.00;105424;1255;1004563;-82
2023/08/26 06:57:45;;;;;;;19.00;9.20;;;;;;;-128.00;-1.00;-1.00;105423;1259;1003520;-81
2023/08/26 07:00:12;;;;;;;11.80;8.60;;;;;;;-128.00;-1.00;-1.00;105452;1252;1003974;-81
2023/08/26 07:02:39;;;;;;;12.90;8.90;;;;;;;-128.00;-1.00;-1.00;105259;1254;1004369;-81
2023/08/26 07:05:06;;;;;;;11.60;8.70;;;;;;;-128.00;-1.00;-1.00;105217;1253;1004211;-82
2023/08/26 07:07:32;;;;;;;11.70;8.60;;;;;;;-128.00;-1.00;-1.00;105420;1254;1003930;-81
2023/08/26 07:09:59;;;;;;;22.80;13.30;;;;;;;-128.00;-1.00;-1.00;105456;1253;1004260;-82
2023/08/26 07:12:26;;;;;;;14.60;10.50;;;;;;;-128.00;-1.00;-1.00;105445;1253;1003609;-81
2023/08/26 07:14:53;;;;;;;17.70;9.30;;;;;;;-128.00;-1.00;-1.00;105435;1253;1004310;-82
2023/08/26 07:17:19;;;;;;;18.10;9.40;;;;;;;-128.00;-1.00;-1.00;105417;1253;1004480;-82
2023/08/26 07:19:46;;;;;;;12.50;8.40;;;;;;;-128.00;-1.00;-1.00;105324;1258;1004222;-82
2023/08/26 07:22:12;;;;;;;17.70;12.60;;;;;;;-128.00;-1.00;-1.00;105395;1253;1004059;-82
2023/08/26 07:24:39;;;;;;;17.90;11.20;;;;;;;-128.00;-1.00;-1.00;105421;1254;1004578;-82
2023/08/26 07:27:05;;;;;;;14.80;8.50;;;;;;;-128.00;-1.00;-1.00;105425;1254;1003829;-83
2023/08/26 07:29:35;;;;;;;14.30;8.50;;;;;;;-128.00;-1.00;-1.00;105320;1254;1005163;-82
2023/08/26 07:32:02;;;;;;;16.80;8.50;;;;;;;-128.00;-1.00;-1.00;105363;1254;1047263;-83
2023/08/26 07:34:29;;;;;;;12.00;6.80;;;;;;;-128.00;-1.00;-1.00;105430;1254;1004499;-83
2023/08/26 07:36:55;;;;;;;10.10;7.80;;;;;;;-128.00;-1.00;-1.00;105421;1254;1004860;-82
2023/08/26 07:39:24;;;;;;;13.50;7.60;;;;;;;-128.00;-1.00;-1.00;105454;1253;1004570;-82
2023/08/26 07:41:51;;;;;;;15.20;8.00;;;;;;;-128.00;-1.00;-1.00;105434;1253;1059206;-83
2023/08/26 07:44:17;;;;;;;11.50;7.80;;;;;;;-128.00;-1.00;-1.00;105250;1256;1004689;-82
2023/08/26 07:46:44;;;;;;;14.80;8.30;;;;;;;-128.00;-1.00;-1.00;105416;1254;1005216;-82
2023/08/26 07:49:10;;;;;;;13.20;9.30;;;;;;;-128.00;-1.00;-1.00;105400;1254;1004360;-82
2023/08/26 07:51:37;;;;;;;12.50;8.40;;;;;;;-128.00;-1.00;-1.00;105407;1254;1004607;-82
2023/08/26 07:54:04;;;;;;;14.90;6.40;;;;;;;-128.00;-1.00;-1.00;105427;1253;1003632;-82
2023/08/26 07:56:30;;;;;;;7.60;5.90;;;;;;;-128.00;-1.00;-1.00;105396;1253;1003512;-82
2023/08/26 07:58:57;;;;;;;11.00;7.00;;;;;;;-128.00;-1.00;-1.00;105197;1253;1004601;-82
2023/08/26 08:01:23;;;;;;;12.10;6.70;;;;;;;-128.00;-1.00;-1.00;105413;1254;1003716;-82
2023/08/26 08:03:50;;;;;;;5.90;5.30;;;;;;;-128.00;-1.00;-1.00;105369;1253;1004444;-82
2023/08/26 08:06:16;;;;;;;7.50;6.00;;;;;;;-128.00;-1.00;-1.00;105401;1254;1003945;-83
2023/08/26 08:08:43;;;;;;;10.30;5.60;;;;;;;-128.00;-1.00;-1.00;105480;1254;1003515;-83
2023/08/26 08:11:09;;;;;;;10.00;5.90;;;;;;;-128.00;-1.00;-1.00;105556;1254;1004385;-83
2023/08/26 08:13:36;;;;;;;27.50;24.10;;;;;;;-128.00;-1.00;-1.00;105294;1254;1004129;-83
2023/08/26 08:16:02;;;;;;;9.60;6.20;;;;;;;-128.00;-1.00;-1.00;105414;1254;1004694;-83
2023/08/26 08:18:29;;;;;;;11.10;6.70;;;;;;;-128.00;-1.00;-1.00;105402;1254;1004626;-83
2023/08/26 08:20:55;;;;;;;12.40;5.80;;;;;;;-128.00;-1.00;-1.00;105388;1254;1004204;-82
2023/08/26 08:23:22;;;;;;;8.40;6.00;;;;;;;-128.00;-1.00;-1.00;105283;1254;1005204;-82
2023/08/26 08:25:48;;;;;;;9.40;6.10;;;;;;;-128.00;-1.00;-1.00;105523;1254;1004364;-82
2023/08/26 08:28:15;;;;;;;12.40;6.00;;;;;;;-128.00;-1.00;-1.00;105400;1254;1004361;-82
2023/08/26 08:30:41;;;;;;;7.80;5.70;;;;;;;-128.00;-1.00;-1.00;105395;1253;1004812;-83
2023/08/26 08:33:08;;;;;;;10.70;5.20;;;;;;;-128.00;-1.00;-1.00;105405;1254;1004418;-82
2023/08/26 08:35:34;;;;;;;8.80;5.70;;;;;;;-128.00;-1.00;-1.00;105586;1254;1003871;-82
2023/08/26 08:38:02;;;;;;;6.50;5.40;;;;;;;-128.00;-1.00;-1.00;105622;1253;1004349;-82
2023/08/26 08:40:29;;;;;;;14.30;6.30;;;;;;;-128.00;-1.00;-1.00;105578;1254;1004645;-83
2023/08/26 08:42:55;;;;;;;6.10;5.20;;;;;;;-128.00;-1.00;-1.00;105423;1254;1004152;-82
2023/08/26 08:45:21;;;;;;;9.60;6.40;;;;;;;-128.00;-1.00;-1.00;105405;1254;1004386;-83
2023/08/26 08:47:50;;;;;;;6.80;5.20;;;;;;;-128.00;-1.00;-1.00;105290;1254;1004247;-83
2023/08/26 08:50:16;;;;;;;6.60;4.80;;;;;;;-128.00;-1.00;-1.00;105424;1254;1004385;-83
2023/08/26 08:52:43;;;;;;;5.90;5.20;;;;;;;-128.00;-1.00;-1.00;105417;1253;1003698;-83
2023/08/26 08:55:10;;;;;;;;;;;;;;;-128.00;-1.00;-1.00;105440;1254;1004838;-83
2023/08/26 08:57:37;;;;;;;7.70;5.60;;;;;;;-128.00;-1.00;-1.00;105338;1254;1004355;-83
2023/08/26 09:00:04;;;;;;;11.70;6.40;;;;;;;-128.00;-1.00;-1.00;105369;1254;1004595;-83
2023/08/26 09:02:30;;;;;;;9.00;4.90;;;;;;;-128.00;-1.00;-1.00;105343;1254;1004492;-83
2023/08/26 09:04:57;;;;;;;7.90;4.70;;;;;;;-128.00;-1.00;-1.00;105292;1254;1004383;-83
2023/08/26 09:07:24;;;;;;;6.30;4.50;;;;;;;-128.00;-1.00;-1.00;105297;1254;1004359;-83
2023/08/26 09:09:52;;;;;;;7.40;6.40;;;;;;;-128.00;-1.00;-1.00;105184;1254;1004531;-83
2023/08/26 09:12:18;;;;;;;9.10;6.10;;;;;;;-128.00;-1.00;-1.00;105418;1254;1004911;-83
2023/08/26 09:14:45;;;;;;;9.90;6.00;;;;;;;-128.00;-1.00;-1.00;105418;1254;1004765;-83
2023/08/26 09:17:18;;;;;;;10.20;5.50;;;;;;;-128.00;-1.00;-1.00;105398;1254;1004892;-83
2023/08/26 09:20:05;;;;;;;6.40;4.70;;;;;;;-128.00;-1.00;-1.00;105236;1254;1059177;-83
2023/08/26 09:22:31;;;;;;;12.30;5.30;;;;;;;-128.00;-1.00;-1.00;105271;1254;1044324;-83
2023/08/26 09:24:59;;;;;;;13.90;6.60;;;;;;;-128.00;-1.00;-1.00;105399;1254;1004184;-83
2023/08/26 09:27:25;;;;;;;7.80;4.70;;;;;;;-128.00;-1.00;-1.00;105410;1254;1003864;-83
2023/08/26 09:29:52;;;;;;;8.80;5.10;;;;;;;-128.00;-1.00;-1.00;105402;1253;1004873;-83
2023/08/26 09:32:35;;;;;;;9.20;5.20;;;;;;;-128.00;-1.00;-1.00;105439;1253;1004904;-83
2023/08/26 09:35:12;;;;;;;7.60;5.40;;;;;;;-128.00;-1.00;-1.00;105139;1254;1044658;-82
2023/08/26 09:37:40;;;;;;;10.70;5.50;;;;;;;-128.00;-1.00;-1.00;105346;1254;1046221;-82
2023/08/26 09:40:07;;;;;;;7.70;5.70;;;;;;;-128.00;-1.00;-1.00;105610;1254;1004317;-82
2023/08/26 09:42:34;;;;;;;10.40;5.60;;;;;;;-128.00;-1.00;-1.00;105556;1254;1004940;-82
2023/08/26 09:45:00;;;;;;;9.80;6.10;;;;;;;-128.00;-1.00;-1.00;105570;1253;1004038;-82
2023/08/26 09:47:28;;;;;;;10.80;6.50;;;;;;;-128.00;-1.00;-1.00;105334;1253;1003739;-82
2023/08/26 09:49:55;;;;;;;14.20;6.50;;;;;;;-128.00;-1.00;-1.00;105444;1254;1004884;-82
2023/08/26 09:52:21;;;;;;;8.00;6.90;;;;;;;-128.00;-1.00;-1.00;105400;1253;1004189;-82
2023/08/26 09:54:48;;;;;;;10.70;7.10;;;;;;;-128.00;-1.00;-1.00;105276;1253;1004922;-82
2023/08/26 09:57:15;;;;;;;8.50;6.70;;;;;;;-128.00;-1.00;-1.00;105242;1254;1004200;-82
2023/08/26 09:59:42;;;;;;;17.70;6.80;;;;;;;-128.00;-1.00;-1.00;105264;1254;1004845;-82
2023/08/26 10:02:19;;;;;;;9.00;5.90;;;;;;;-128.00;-1.00;-1.00;105262;1253;1004398;-81
2023/08/26 10:04:46;;;;;;;8.50;6.00;;;;;;;-128.00;-1.00;-1.00;105409;1254;1062255;-82
2023/08/26 10:07:12;;;;;;;9.50;6.30;;;;;;;-128.00;-1.00;-1.00;105275;1253;1005126;-82
2023/08/26 10:09:45;;;;;;;14.90;7.00;;;;;;;-128.00;-1.00;-1.00;105297;1253;1004711;-82
2023/08/26 10:12:18;;;;;;;13.50;6.90;;;;;;;-128.00;-1.00;-1.00;105391;1253;1046756;-81
2023/08/26 10:14:46;;;;;;;8.10;5.50;;;;;;;-128.00;-1.00;-1.00;105430;1253;1047852;-81
2023/08/26 10:17:13;;;;;;;8.70;5.50;;;;;;;-128.00;-1.00;-1.00;105415;1253;1003945;-81
2023/08/26 10:19:39;;;;;;;6.20;5.60;;;;;;;-128.00;-1.00;-1.00;105249;1254;1004453;-81
2023/08/26 10:22:05;;;;;;;10.00;7.40;;;;;;;-128.00;-1.00;-1.00;105241;1254;1004763;-81
2023/08/26 10:24:32;;;;;;;9.10;6.90;;;;;;;-128.00;-1.00;-1.00;105383;1253;1004292;-81
2023/08/26 10:26:58;;;;;;;13.70;6.90;;;;;;;-128.00;-1.00;-1.00;105295;1254;1004518;-82
2023/08/26 10:29:27;;;;;;;8.50;6.30;;;;;;;-128.00;-1.00;-1.00;105256;1254;1003651;-81
2023/08/26 10:31:53;;;;;;;;;;;;;;;-128.00;-1.00;-1.00;105147;1254;1003465;-81
2023/08/26 10:34:20;;;;;;;12.40;7.10;;;;;;;-128.00;-1.00;-1.00;105402;1253;1004006;-81
2023/08/26 10:36:48;;;;;;;12.30;8.50;;;;;;;-128.00;-1.00;-1.00;105413;1253;1004650;-82
2023/08/26 10:39:18;;;;;;;9.00;7.30;;;;;;;-128.00;-1.00;-1.00;105364;1253;1046296;-82
2023/08/26 10:42:12;;;;;;;10.10;6.70;;;;;;;-128.00;-1.00;-1.00;105474;1253;1061424;-82
2023/08/26 10:44:41;;;;;;;10.40;7.60;;;;;;;-128.00;-1.00;-1.00;105436;1253;1058524;-81
2023/08/26 10:47:08;;;;;;;;;;;;;;;-128.00;-1.00;-1.00;105419;1253;1004284;-82
2023/08/26 10:49:37;;;;;;;12.80;7.40;;;;;;;-128.00;-1.00;-1.00;105387;1253;1005032;-82
2023/08/26 10:52:17;;;;;;;11.80;7.00;;;;;;;-128.00;-1.00;-1.00;105408;1253;1047195;-83
2023/08/26 10:54:46;;;;;;;21.10;9.80;;;;;;;-128.00;-1.00;-1.00;105421;1253;1061666;-81
2023/08/26 10:57:12;;;;;;;17.70;9.10;;;;;;;-128.00;-1.00;-1.00;105364;1253;1058244;-81
2023/08/26 10:59:40;;;;;;;21.90;11.20;;;;;;;-128.00;-1.00;-1.00;105388;1253;1003922;-81
2023/08/26 11:02:08;;;;;;;18.70;11.00;;;;;;;-128.00;-1.00;-1.00;105377;1253;1003465;-82
2023/08/26 11:04:40;;;;;;;13.40;8.00;;;;;;;-128.00;-1.00;-1.00;105388;1253;1048794;-82
2023/08/26 11:07:07;;;;;;;13.30;6.90;;;;;;;-128.00;-1.00;-1.00;105439;1253;1061547;-81
2023/08/26 11:09:35;;;;;;;9.70;6.80;;;;;;;-128.00;-1.00;-1.00;105407;1254;1005379;-81